createdAt,value
2022-10-23T00:02:16.832Z,100076.09
2022-10-23T00:04:44.613Z,100081.50
2022-10-23T00:07:12.863Z,100074.22
2022-10-23T00:09:40.608Z,100082.06
2022-10-23T00:12:08.519Z,100080.03
2022-10-23T00:14:37.645Z,100089.91
2022-10-23T00:17:05.456Z,100083.75
2022-10-23T00:19:33.210Z,100085.75
2022-10-23T00:22:01.238Z,100080.94
2022-10-23T00:24:29.123Z,100092.31
2022-10-23T00:26:56.896Z,100097.44
2022-10-23T00:29:25.673Z,100090.75
2022-10-23T00:31:57.037Z,100101.31
2022-10-23T00:34:25.220Z,100096.81
2022-10-23T00:36:52.970Z,100110.03
2022-10-23T00:39:20.766Z,100113.38
2022-10-23T00:41:48.533Z,100099.47
2022-10-23T00:44:49.384Z,100103.50
2022-10-23T00:47:19.368Z,100106.44
2022-10-23T00:49:47.156Z,100103.97
2022-10-23T00:52:15.360Z,100103.50
2022-10-23T00:54:44.519Z,100111.69
2022-10-23T00:57:14.226Z,100106.91
2022-10-23T00:59:44.042Z,100111.19
2022-10-23T01:02:12.011Z,100113.94
2022-10-23T01:04:41.596Z,100121.56
2022-10-23T01:07:16.880Z,100122.56
2022-10-23T01:09:50.743Z,100116.63
2022-10-23T01:12:27.356Z,100120.66
2022-10-23T01:15:06.216Z,100123.38
2022-10-23T01:17:42.500Z,100120.06
2022-10-23T01:20:30.354Z,100120.06
2022-10-23T01:23:13.424Z,100136.28
2022-10-23T01:25:59.760Z,100139.44
2022-10-23T01:28:33.857Z,100131.09
2022-10-23T01:31:08.542Z,100136.94
2022-10-23T01:33:42.380Z,100132.84
2022-10-23T01:36:15.302Z,100131.22
2022-10-23T01:38:47.400Z,100128.69
2022-10-23T01:41:25.744Z,100130.97
2022-10-23T01:44:01.959Z,100126.78
2022-10-23T01:46:37.417Z,100127.56
2022-10-23T01:49:11.059Z,100115.88
2022-10-23T01:51:41.300Z,100114.16
2022-10-23T01:54:13.896Z,100113.09
2022-10-23T01:56:47.004Z,100102.88
2022-10-23T01:59:20.904Z,100103.50
2022-10-23T02:01:51.848Z,100111.69
2022-10-23T02:04:28.242Z,100113.38
2022-10-23T02:06:56.372Z,100114.38
2022-10-23T02:09:24.608Z,100119.69
2022-10-23T02:11:56.288Z,100117.34
2022-10-23T02:14:35.383Z,100101.94
2022-10-23T02:17:15.988Z,100124.91
2022-10-23T02:19:51.024Z,100128.19
2022-10-23T02:22:24.041Z,100115.28
2022-10-23T02:24:56.689Z,100137.88
2022-10-23T02:27:31.415Z,100121.34
2022-10-23T02:30:05.286Z,100136.78
2022-10-23T02:32:35.940Z,100146.78
2022-10-23T02:35:04.105Z,100141.72
2022-10-23T02:37:31.961Z,100143.38
2022-10-23T02:40:03.881Z,100136.56
2022-10-23T02:42:46.017Z,100139.97
2022-10-23T02:45:25.424Z,100138.31
2022-10-23T02:48:01.544Z,100140.09
2022-10-23T02:50:36.266Z,100139.28
2022-10-23T02:53:12.414Z,100140.19
2022-10-23T02:55:52.561Z,100142.81
2022-10-23T02:58:25.537Z,100135.31
2022-10-23T03:01:00.685Z,100115.78
2022-10-23T03:03:32.659Z,100142.13
2022-10-23T03:06:00.896Z,100142.03
2022-10-23T03:08:29.124Z,100148.72
2022-10-23T03:10:57.213Z,100152.75
2022-10-23T03:13:25.231Z,100153.66
2022-10-23T03:15:53.547Z,100152.75
2022-10-23T03:18:22.634Z,100160.06
2022-10-23T03:20:51.808Z,100157.50
2022-10-23T03:23:23.164Z,100150.66
2022-10-23T03:25:51.449Z,100143.91
2022-10-23T03:28:32.704Z,100142.34
2022-10-23T03:31:02.102Z,100137.31
2022-10-23T03:33:31.769Z,100140.59
2022-10-23T03:36:08.733Z,100146.47
2022-10-23T03:38:37.070Z,100138.84
2022-10-23T03:41:06.155Z,100143.16
2022-10-23T03:43:33.949Z,100140.59
2022-10-23T03:46:02.206Z,100141.97
2022-10-23T03:48:32.636Z,100138.59
2022-10-23T03:51:00.479Z,100147.75
2022-10-23T03:53:28.245Z,100142.94
2022-10-23T03:55:56.229Z,100147.13
2022-10-23T03:58:23.991Z,100155.41
2022-10-23T04:00:51.859Z,100147.13
2022-10-23T04:03:19.627Z,100155.41
2022-10-23T04:05:52.102Z,100152.81
2022-10-23T04:08:22.461Z,100152.06
2022-10-23T04:10:53.497Z,100151.47
2022-10-23T04:13:27.245Z,100153.25
2022-10-23T04:15:55.231Z,100156.53
2022-10-23T04:18:24.564Z,100154.63
2022-10-23T04:20:54.516Z,100153.03
2022-10-23T04:23:22.540Z,100162.31
2022-10-23T04:25:50.520Z,100161.53
2022-10-23T04:28:18.375Z,100164.09
2022-10-23T04:30:46.808Z,100173.34
2022-10-23T04:33:14.548Z,100179.19
2022-10-23T04:35:42.404Z,100166.53
2022-10-23T04:38:13.152Z,100180.72
2022-10-23T04:40:41.097Z,100168.03
2022-10-23T04:43:08.886Z,100184.09
2022-10-23T04:45:39.448Z,100180.91
2022-10-23T04:48:07.627Z,100167.31
2022-10-23T04:50:59.274Z,100186.31
2022-10-23T04:53:34.996Z,100172.91
2022-10-23T04:56:35.102Z,100177.91
2022-10-23T04:59:07.067Z,100169.66
2022-10-23T05:01:36.047Z,100169.66
2022-10-23T05:04:06.059Z,100161.16
2022-10-23T05:06:40.513Z,100164.72
2022-10-23T05:09:24.311Z,100163.91
2022-10-23T05:12:00.319Z,100173.25
2022-10-23T05:14:28.140Z,100179.03
2022-10-23T05:17:01.139Z,100154.56
2022-10-23T05:19:34.641Z,100167.22
2022-10-23T05:22:03.314Z,100166.28
2022-10-23T05:24:50.477Z,100155.31
2022-10-23T05:27:22.433Z,100176.72
2022-10-23T05:29:52.232Z,100179.16
2022-10-23T05:32:26.874Z,100182.56
2022-10-23T05:34:56.167Z,100193.53
2022-10-23T05:37:27.873Z,100200.22
2022-10-23T05:40:09.006Z,100199.38
2022-10-23T05:42:40.926Z,100188.41
2022-10-23T05:45:12.178Z,100200.97
2022-10-23T05:48:11.272Z,100199.16
2022-10-23T05:51:10.608Z,100202.31
2022-10-23T05:53:48.562Z,100209.25
2022-10-23T05:56:25.286Z,100196.88
2022-10-23T05:59:07.704Z,100200.97
2022-10-23T06:01:49.842Z,100212.50
2022-10-23T06:04:26.728Z,100203.16
2022-10-23T06:07:14.487Z,100202.31
2022-10-23T06:09:44.577Z,100200.72
2022-10-23T06:12:15.228Z,100217.81
2022-10-23T06:14:46.116Z,100211.44
2022-10-23T06:17:13.990Z,100213.19
2022-10-23T06:19:45.174Z,100205.75
2022-10-23T06:22:15.321Z,100218.16
2022-10-23T06:24:50.689Z,100221.09
2022-10-23T06:27:28.949Z,100219.25
2022-10-23T06:29:56.854Z,100225.13
2022-10-23T06:32:25.710Z,100216.41
2022-10-23T06:35:10.214Z,100222.44
2022-10-23T06:37:38.729Z,100225.84
2022-10-23T06:40:13.216Z,100226.56
2022-10-23T06:42:56.652Z,100224.69
2022-10-23T06:45:39.818Z,100227.09
2022-10-23T06:48:13.713Z,100226.41
2022-10-23T06:50:44.541Z,100237.44
2022-10-23T06:53:15.841Z,100231.75
2022-10-23T06:55:52.889Z,100217.19
2022-10-23T06:58:25.820Z,100232.91
2022-10-23T07:01:12.529Z,100222.22
2022-10-23T07:03:43.839Z,100219.41
2022-10-23T07:06:12.747Z,100222.22
2022-10-23T07:08:40.983Z,100224.16
2022-10-23T07:11:28.745Z,100231.34
2022-10-23T07:13:59.408Z,100221.34
2022-10-23T07:16:27.422Z,100239.25
2022-10-23T07:18:59.293Z,100244.50
2022-10-23T07:21:32.090Z,100243.53
2022-10-23T07:24:18.650Z,100242.03
2022-10-23T07:26:46.686Z,100244.72
2022-10-23T07:29:16.899Z,100240.00
2022-10-23T07:31:44.939Z,100234.16
2022-10-23T07:34:32.006Z,100228.97
2022-10-23T07:37:35.465Z,100224.78
2022-10-23T07:40:06.177Z,100254.28
2022-10-23T07:42:39.906Z,100248.53
2022-10-23T07:45:12.429Z,100244.31
2022-10-23T07:47:43.872Z,100247.16
2022-10-23T07:50:14.119Z,100241.16
2022-10-23T07:52:42.016Z,100238.97
2022-10-23T07:55:15.077Z,100236.41
2022-10-23T07:57:53.435Z,100222.69
2022-10-23T08:00:43.020Z,100229.44
2022-10-23T08:03:25.652Z,100234.66
2022-10-23T08:05:54.279Z,100246.28
2022-10-23T08:08:23.571Z,100253.75
2022-10-23T08:10:55.353Z,100251.19
2022-10-23T08:13:28.712Z,100250.97
2022-10-23T08:16:03.249Z,100248.47
2022-10-23T08:18:54.694Z,100246.19
2022-10-23T08:21:23.103Z,100239.66
2022-10-23T08:23:54.476Z,100235.81
2022-10-23T08:26:23.045Z,100233.16
2022-10-23T08:28:51.286Z,100239.44
2022-10-23T08:31:22.366Z,100237.22
2022-10-23T08:34:15.224Z,100237.56
2022-10-23T08:36:44.516Z,100243.81
2022-10-23T08:39:12.874Z,100244.16
2022-10-23T08:41:51.528Z,100247.66
2022-10-23T08:44:24.292Z,100241.75
2022-10-23T08:47:01.356Z,100241.78
2022-10-23T08:49:51.725Z,100234.69
2022-10-23T08:52:27.138Z,100251.59
2022-10-23T08:55:03.647Z,100236.50
2022-10-23T08:57:40.039Z,100240.00
2022-10-23T09:00:15.384Z,100236.94
2022-10-23T09:02:47.664Z,100235.75
2022-10-23T09:05:18.935Z,100232.88
2022-10-23T09:08:12.657Z,100230.13
2022-10-23T09:10:53.023Z,100227.09
2022-10-23T09:13:45.492Z,100231.59
2022-10-23T09:16:22.081Z,100210.47
2022-10-23T09:18:51.278Z,100236.94
2022-10-23T09:21:19.019Z,100218.59
2022-10-23T09:23:46.820Z,100228.16
2022-10-23T09:26:16.798Z,100238.31
2022-10-23T09:28:48.743Z,100214.50
2022-10-23T09:31:17.568Z,100219.59
2022-10-23T09:33:57.140Z,100231.13
2022-10-23T09:36:29.050Z,100234.34
2022-10-23T09:38:59.790Z,100221.78
2022-10-23T09:41:30.845Z,100227.72
2022-10-23T09:44:18.548Z,100219.53
2022-10-23T09:46:48.529Z,100224.28
2022-10-23T09:49:19.850Z,100231.47
2022-10-23T09:51:54.904Z,100236.78
2022-10-23T09:54:24.874Z,100234.50
2022-10-23T09:56:55.920Z,100235.53
2022-10-23T09:59:28.725Z,100235.47
2022-10-23T10:01:58.908Z,100232.94
2022-10-23T10:04:59.377Z,100233.00
2022-10-23T10:07:33.372Z,100219.50
2022-10-23T10:10:03.917Z,100225.47
2022-10-23T10:12:45.940Z,100222.97
2022-10-23T10:15:23.718Z,100233.31
2022-10-23T10:18:04.044Z,100228.38
2022-10-23T10:20:55.816Z,100233.25
2022-10-23T10:23:34.375Z,100211.13
2022-10-23T10:26:15.872Z,100216.19
2022-10-23T10:28:54.730Z,100207.06
2022-10-23T10:31:30.290Z,100205.44
2022-10-23T10:34:07.688Z,100201.09
2022-10-23T10:36:50.549Z,100192.53
2022-10-23T10:39:28.735Z,100187.41
2022-10-23T10:42:10.916Z,100183.16
2022-10-23T10:44:52.828Z,100180.53
2022-10-23T10:47:25.560Z,100182.22
2022-10-23T10:50:03.684Z,100171.34
2022-10-23T10:52:49.903Z,100167.19
2022-10-23T10:55:22.757Z,100163.13
2022-10-23T10:57:59.175Z,100163.19
2022-10-23T11:00:31.250Z,100159.09
2022-10-23T11:03:02.760Z,100140.59
2022-10-23T11:05:33.292Z,100147.47
2022-10-23T11:08:06.892Z,100139.16
2022-10-23T11:10:38.766Z,100129.13
2022-10-23T11:13:06.790Z,100131.66
2022-10-23T11:15:39.838Z,100125.84
2022-10-23T11:18:16.537Z,100132.69
2022-10-23T11:21:01.117Z,100115.91
2022-10-23T11:23:49.824Z,100115.16
2022-10-23T11:26:33.958Z,100121.13
2022-10-23T11:29:21.899Z,100110.25
2022-10-23T11:32:02.945Z,100114.69
2022-10-23T11:34:44.964Z,100115.56
2022-10-23T11:37:18.092Z,100108.03
2022-10-23T11:40:02.389Z,100102.19
2022-10-23T11:42:46.588Z,100097.16
2022-10-23T11:45:28.861Z,100089.59
2022-10-23T11:48:01.439Z,100080.41
2022-10-23T11:50:32.832Z,100076.25
2022-10-23T11:53:14.552Z,100059.34
2022-10-23T11:56:00.540Z,100068.81
2022-10-23T11:58:33.095Z,100065.47
2022-10-23T12:01:06.691Z,100052.03
2022-10-23T12:03:42.876Z,100042.00
2022-10-23T12:06:22.721Z,100013.34
2022-10-23T12:08:57.487Z,100037.19
2022-10-23T12:11:42.239Z,100030.53
2022-10-23T12:14:30.634Z,100028.19
2022-10-23T12:16:59.483Z,100031.63
2022-10-23T12:19:29.319Z,100011.56
2022-10-23T12:22:01.517Z,100026.91
2022-10-23T12:24:49.179Z,100010.19
2022-10-23T12:27:26.852Z,99995.91
2022-10-23T12:30:05.577Z,99997.72
2022-10-23T12:32:46.742Z,100002.00
2022-10-23T12:35:29.788Z,99988.53
2022-10-23T12:38:11.428Z,100002.13
2022-10-23T12:40:39.541Z,99998.00
2022-10-23T12:43:26.087Z,100002.34
2022-10-23T12:45:56.058Z,99999.91
2022-10-23T12:48:25.418Z,99991.50
2022-10-23T12:50:55.316Z,99987.38
2022-10-23T12:53:24.160Z,99986.53
2022-10-23T12:55:57.104Z,99984.06
2022-10-23T12:58:29.986Z,99974.06
2022-10-23T13:01:03.408Z,99971.66
2022-10-23T13:03:32.647Z,99966.75
2022-10-23T13:06:03.454Z,99959.25
2022-10-23T13:08:35.041Z,99961.88
2022-10-23T13:11:23.797Z,99963.56
2022-10-23T13:13:55.106Z,99951.72
2022-10-23T13:16:25.124Z,99950.06
2022-10-23T13:18:54.323Z,99950.81
2022-10-23T13:21:24.212Z,99938.88
2022-10-23T13:23:54.298Z,99947.34
2022-10-23T13:26:29.474Z,99923.72
2022-10-23T13:28:59.462Z,99950.06
2022-10-23T13:31:31.328Z,99932.41
2022-10-23T13:34:16.175Z,99946.78
2022-10-23T13:36:53.706Z,99941.63
2022-10-23T13:39:25.553Z,99933.13
2022-10-23T13:41:54.154Z,99937.31
2022-10-23T13:44:24.784Z,99928.91
2022-10-23T13:46:53.098Z,99922.19
2022-10-23T13:49:21.206Z,99932.28
2022-10-23T13:51:52.564Z,99927.94
2022-10-23T13:54:23.029Z,99922.81
2022-10-23T13:56:50.900Z,99921.06
2022-10-23T13:59:19.301Z,99920.97
2022-10-23T14:01:49.910Z,99925.09
2022-10-23T14:04:19.134Z,99907.31
2022-10-23T14:06:47.273Z,99908.97
2022-10-23T14:09:17.604Z,99912.34
2022-10-23T14:11:46.004Z,99916.53
2022-10-23T14:14:13.766Z,99913.16
2022-10-23T14:16:41.733Z,99903.03
2022-10-23T14:19:11.912Z,99888.66
2022-10-23T14:21:39.691Z,99887.84
2022-10-23T14:24:07.908Z,99891.16
2022-10-23T14:26:35.860Z,99895.28
2022-10-23T14:29:07.649Z,99894.47
2022-10-23T14:31:38.095Z,99886.94
2022-10-23T14:34:05.845Z,99886.13
2022-10-23T14:36:49.255Z,99877.72
2022-10-23T14:39:17.876Z,99865.94
2022-10-23T14:41:45.896Z,99867.59
2022-10-23T14:44:13.904Z,99871.81
2022-10-23T14:46:41.729Z,99879.41
2022-10-23T14:49:09.568Z,99855.75
2022-10-23T14:51:38.678Z,99868.44
2022-10-23T14:54:08.760Z,99870.09
2022-10-23T14:56:39.370Z,99860.81
2022-10-23T14:59:07.940Z,99864.09
2022-10-23T15:01:42.293Z,99869.88
2022-10-23T15:04:14.381Z,99869.00
2022-10-23T15:06:46.282Z,99872.25
2022-10-23T15:09:14.786Z,99872.22
2022-10-23T15:11:42.756Z,99875.50
2022-10-23T15:14:10.581Z,99872.88
2022-10-23T15:16:41.331Z,99867.81
2022-10-23T15:19:13.573Z,99877.81
2022-10-23T15:21:47.132Z,99876.03
2022-10-23T15:24:15.142Z,99885.41
2022-10-23T15:26:43.374Z,99865.13
2022-10-23T15:29:12.322Z,99877.81
2022-10-23T15:31:49.534Z,99879.41
2022-10-23T15:34:19.996Z,99886.91
2022-10-23T15:36:50.152Z,99891.00
2022-10-23T15:39:20.553Z,99894.28
2022-10-23T15:41:52.157Z,99897.63
2022-10-23T15:44:22.186Z,99909.38
2022-10-23T15:46:50.403Z,99900.16
2022-10-23T15:49:19.872Z,99891.69
2022-10-23T15:51:49.266Z,99912.00
2022-10-23T15:54:19.394Z,99905.28
2022-10-23T15:56:48.561Z,99910.28
2022-10-23T15:59:16.817Z,99900.09
2022-10-23T16:01:44.848Z,99905.22
2022-10-23T16:04:12.768Z,99896.81
2022-10-23T16:06:40.662Z,99904.34
2022-10-23T16:09:09.850Z,99906.03
2022-10-23T16:11:39.984Z,99873.88
2022-10-23T16:14:08.212Z,99909.34
2022-10-23T16:16:36.311Z,99902.56
2022-10-23T16:19:05.450Z,99903.34
2022-10-23T16:21:35.326Z,99916.69
2022-10-23T16:24:04.813Z,99911.66
2022-10-23T16:26:34.401Z,99915.00
2022-10-23T16:29:04.364Z,99914.16
2022-10-23T16:31:32.628Z,99905.75
2022-10-23T16:34:02.216Z,99901.47
2022-10-23T16:36:30.515Z,99886.16
2022-10-23T16:39:11.189Z,99913.94
2022-10-23T16:41:59.181Z,99930.72
2022-10-23T16:44:36.802Z,99917.31
2022-10-23T16:47:06.856Z,99904.59
2022-10-23T16:49:35.154Z,99926.56
2022-10-23T16:52:02.964Z,99931.59
2022-10-23T16:54:30.809Z,99938.31
2022-10-23T16:57:00.296Z,99933.28
2022-10-23T16:59:28.093Z,99935.81
2022-10-23T17:01:56.007Z,99945.91
2022-10-23T17:04:23.928Z,99930.78
2022-10-23T17:06:51.732Z,99935.94
2022-10-23T17:09:19.985Z,99940.16
2022-10-23T17:11:47.926Z,99935.19
2022-10-23T17:14:19.667Z,99943.56
2022-10-23T17:16:49.425Z,99934.31
2022-10-23T17:19:40.124Z,99921.53
2022-10-23T17:22:10.431Z,99933.22
2022-10-23T17:24:38.813Z,99945.03
2022-10-23T17:27:07.078Z,99949.34
2022-10-23T17:29:36.316Z,99954.44
2022-10-23T17:32:04.630Z,99953.59
2022-10-23T17:34:32.520Z,99952.78
2022-10-23T17:37:00.313Z,99951.88
2022-10-23T17:39:30.633Z,99949.38
2022-10-23T17:41:59.475Z,99945.16
2022-10-23T17:44:29.059Z,99938.41
2022-10-23T17:46:58.281Z,99933.31
2022-10-23T17:49:26.659Z,99944.34
2022-10-23T17:51:56.357Z,99946.91
2022-10-23T17:54:25.185Z,99943.50
2022-10-23T17:56:53.022Z,99943.56
2022-10-23T17:59:21.220Z,99940.25
2022-10-23T18:01:49.345Z,99935.22
2022-10-23T18:04:20.782Z,99931.91
2022-10-23T18:06:50.697Z,99928.56
2022-10-23T18:09:19.787Z,99933.59
2022-10-23T18:11:48.697Z,99941.19
2022-10-23T18:14:17.229Z,99942.84
2022-10-23T18:16:46.132Z,99939.53
2022-10-23T18:19:14.373Z,99943.78
2022-10-23T18:21:43.528Z,99952.19
2022-10-23T18:24:12.736Z,99952.16
2022-10-23T18:26:42.596Z,99948.00
2022-10-23T18:29:17.273Z,99950.50
2022-10-23T18:31:45.988Z,99950.56
2022-10-23T18:34:16.825Z,99943.72
2022-10-23T18:36:46.351Z,99928.63
2022-10-23T18:39:15.947Z,99948.91
2022-10-23T18:41:45.772Z,99942.19
2022-10-23T18:44:16.691Z,99948.91
2022-10-23T18:46:44.863Z,99937.16
2022-10-23T18:49:12.806Z,99941.34
2022-10-23T18:51:41.199Z,99936.34
2022-10-23T18:54:13.411Z,99943.09
2022-10-23T18:56:41.637Z,99941.38
2022-10-23T18:59:13.249Z,99935.50
2022-10-23T19:01:41.980Z,99933.75
2022-10-23T19:04:11.649Z,99934.63
2022-10-23T19:06:40.049Z,99937.16
2022-10-23T19:09:11.736Z,99930.41
2022-10-23T19:11:40.399Z,99925.38
2022-10-23T19:14:08.304Z,99927.91
2022-10-23T19:16:39.823Z,99923.69
2022-10-23T19:19:13.867Z,99922.00
2022-10-23T19:21:43.240Z,99926.19
2022-10-23T19:24:16.865Z,99904.19
2022-10-23T19:26:44.981Z,99922.88
2022-10-23T19:29:16.510Z,99924.56
2022-10-23T19:31:48.874Z,99922.03
2022-10-23T19:34:19.658Z,99931.25
2022-10-23T19:36:47.540Z,99924.53
2022-10-23T19:39:17.047Z,99925.41
2022-10-23T19:41:44.931Z,99922.03
2022-10-23T19:44:15.049Z,99922.06
2022-10-23T19:46:43.042Z,99918.66
2022-10-23T19:49:11.313Z,99927.94
2022-10-23T19:51:39.459Z,99930.47
2022-10-23T19:54:09.646Z,99927.09
2022-10-23T19:56:39.357Z,99930.47
2022-10-23T19:59:07.433Z,99922.03
2022-10-23T20:01:35.718Z,99925.38
2022-10-23T20:04:03.587Z,99914.44
2022-10-23T20:06:34.537Z,99917.78
2022-10-23T20:09:02.741Z,99916.09
2022-10-23T20:11:32.181Z,99910.16
2022-10-23T20:14:01.357Z,99919.38
2022-10-23T20:16:31.343Z,99916.81
2022-10-23T20:18:59.688Z,99907.59
2022-10-23T20:21:27.884Z,99906.72
2022-10-23T20:23:57.663Z,99894.13
2022-10-23T20:26:25.551Z,99899.91
2022-10-23T20:28:55.831Z,99893.94
2022-10-23T20:31:26.911Z,99889.63
2022-10-23T20:33:55.407Z,99881.19
2022-10-23T20:36:27.243Z,99883.63
2022-10-23T20:38:55.618Z,99882.66
2022-10-23T20:41:24.963Z,99882.59
2022-10-23T20:43:52.821Z,99886.75
2022-10-23T20:46:21.757Z,99876.66
2022-10-23T20:48:51.145Z,99862.34
2022-10-23T20:51:21.526Z,99860.66
2022-10-23T20:53:50.751Z,99862.34
2022-10-23T20:56:20.573Z,99863.09
2022-10-23T20:58:48.437Z,99877.38
2022-10-23T21:01:19.094Z,99879.03
2022-10-23T21:03:52.229Z,99888.16
2022-10-23T21:06:20.720Z,99891.44
2022-10-23T21:08:48.515Z,99891.22
2022-10-23T21:11:18.320Z,99890.41
2022-10-23T21:13:46.219Z,99878.56
2022-10-23T21:16:15.705Z,99886.97
2022-10-23T21:18:46.479Z,99875.13
2022-10-23T21:21:19.165Z,99882.63
2022-10-23T21:23:48.153Z,99880.88
2022-10-23T21:26:16.979Z,99881.66
2022-10-23T21:28:55.644Z,99887.47
2022-10-23T21:31:29.260Z,99881.56
2022-10-23T21:33:57.257Z,99892.41
2022-10-23T21:36:27.409Z,99898.31
2022-10-23T21:38:58.320Z,99908.44
2022-10-23T21:41:29.666Z,99910.97
2022-10-23T21:43:59.433Z,99898.34
2022-10-23T21:46:28.326Z,99911.94
2022-10-23T21:48:56.941Z,99912.75
2022-10-23T21:51:29.799Z,99908.59
2022-10-23T21:53:58.161Z,99896.84
2022-10-23T21:56:32.179Z,99900.97
2022-10-23T21:59:01.772Z,99913.50
2022-10-23T22:01:30.315Z,99916.91
2022-10-23T22:03:58.191Z,99910.22
2022-10-23T22:06:29.283Z,99907.72
2022-10-23T22:08:58.755Z,99900.94
2022-10-23T22:11:27.292Z,99898.41
2022-10-23T22:13:55.677Z,99885.69
2022-10-23T22:16:23.718Z,99879.81
2022-10-23T22:18:51.840Z,99884.84
2022-10-23T22:21:21.992Z,99879.88
2022-10-23T22:23:52.466Z,99876.47
2022-10-23T22:26:23.852Z,99874.84
2022-10-23T22:28:53.421Z,99863.00
2022-10-23T22:31:23.843Z,99862.91
2022-10-23T22:33:52.576Z,99870.44
2022-10-23T22:36:20.614Z,99857.63
2022-10-23T22:38:48.929Z,99887.03
2022-10-23T22:41:18.958Z,99886.00
2022-10-23T22:43:47.166Z,99876.69
2022-10-23T22:46:17.415Z,99882.53
2022-10-23T22:48:45.986Z,99883.34
2022-10-23T22:51:15.671Z,99867.22
2022-10-23T22:53:44.318Z,99859.56
2022-10-23T22:56:14.646Z,99867.22
2022-10-23T22:58:44.135Z,99863.84
2022-10-23T23:01:15.474Z,99860.41
2022-10-23T23:03:43.746Z,99860.28
2022-10-23T23:06:12.544Z,99868.56
2022-10-23T23:08:41.465Z,99862.63
2022-10-23T23:11:12.549Z,99852.47
2022-10-23T23:13:40.979Z,99864.22
2022-10-23T23:16:20.991Z,99835.56
2022-10-23T23:18:49.583Z,99842.41
2022-10-23T23:21:17.950Z,99853.53
2022-10-23T23:23:46.409Z,99854.34
2022-10-23T23:26:15.075Z,99845.09
2022-10-23T23:28:43.099Z,99850.91
2022-10-23T23:31:14.532Z,99844.97
2022-10-23T23:33:42.293Z,99833.13
2022-10-23T23:36:13.421Z,99845.56
2022-10-23T23:38:41.312Z,99843.00
2022-10-23T23:41:13.257Z,99842.06
2022-10-23T23:43:41.299Z,99842.00
2022-10-23T23:46:09.249Z,99822.47
2022-10-23T23:48:39.177Z,99859.53
2022-10-23T23:51:07.372Z,99843.53
2022-10-23T23:53:35.208Z,99857.84
2022-10-23T23:56:03.009Z,99861.09
2022-10-23T23:58:30.761Z,99876.09
